sensor_id;sensor_type;location;lat;lon;timestamp;P1;durP1;ratioP1;P2;durP2;ratioP2
21488;SDS011;10906;45.194;5.684;2023-07-13T04:41:02;7.50;;;1.73;;
21488;SDS011;10906;45.194;5.684;2023-07-13T04:46:33;2.95;;;1.55;;
21488;SDS011;10906;45.194;5.684;2023-07-13T04:49:18;2.00;;;1.20;;
21488;SDS011;10906;45.194;5.684;2023-07-13T04:52:03;2.13;;;1.40;;
21488;SDS011;10906;45.194;5.684;2023-07-13T04:54:48;1.90;;;1.20;;
21488;SDS011;10906;45.194;5.684;2023-07-13T04:57:35;2.05;;;1.27;;
21488;SDS011;10906;45.194;5.684;2023-07-13T05:00:19;3.97;;;1.17;;
21488;SDS011;10906;45.194;5.684;2023-07-13T05:03:04;4.10;;;1.70;;
21488;SDS011;10906;45.194;5.684;2023-07-13T05:05:55;4.07;;;1.40;;
21488;SDS011;10906;45.194;5.684;2023-07-13T05:08:42;1.63;;;1.30;;
21488;SDS011;10906;45.194;5.684;2023-07-13T05:11:26;3.78;;;1.33;;
21488;SDS011;10906;45.194;5.684;2023-07-13T05:14:11;5.85;;;1.40;;
21488;SDS011;10906;45.194;5.684;2023-07-13T05:16:56;2.10;;;1.17;;
21488;SDS011;10906;45.194;5.684;2023-07-13T05:19:41;1.92;;;1.20;;
21488;SDS011;10906;45.194;5.684;2023-07-13T05:22:25;4.43;;;1.27;;
21488;SDS011;10906;45.194;5.684;2023-07-13T05:25:10;2.97;;;1.27;;
21488;SDS011;10906;45.194;5.684;2023-07-13T05:27:55;6.40;;;1.42;;
21488;SDS011;10906;45.194;5.684;2023-07-13T05:30:40;3.80;;;1.40;;
21488;SDS011;10906;45.194;5.684;2023-07-13T05:33:29;5.80;;;1.75;;
21488;SDS011;10906;45.194;5.684;2023-07-13T05:36:13;7.20;;;1.42;;
21488;SDS011;10906;45.194;5.684;2023-07-13T05:38:58;3.05;;;1.40;;
21488;SDS011;10906;45.194;5.684;2023-07-13T05:41:43;6.47;;;1.83;;
21488;SDS011;10906;45.194;5.684;2023-07-13T05:44:27;7.35;;;1.60;;
21488;SDS011;10906;45.194;5.684;2023-07-13T05:47:11;2.15;;;1.35;;
21488;SDS011;10906;45.194;5.684;2023-07-13T05:49:58;4.47;;;1.60;;
21488;SDS011;10906;45.194;5.684;2023-07-13T05:52:46;30.42;;;4.47;;
21488;SDS011;10906;45.194;5.684;2023-07-13T05:55:30;3.20;;;1.58;;
21488;SDS011;10906;45.194;5.684;2023-07-13T05:58:16;6.22;;;1.88;;
21488;SDS011;10906;45.194;5.684;2023-07-13T06:01:05;4.05;;;1.70;;
21488;SDS011;10906;45.194;5.684;2023-07-13T06:03:59;25.38;;;2.90;;
21488;SDS011;10906;45.194;5.684;2023-07-13T06:06:44;4.95;;;1.65;;
21488;SDS011;10906;45.194;5.684;2023-07-13T06:09:28;2.85;;;1.38;;
21488;SDS011;10906;45.194;5.684;2023-07-13T06:12:12;2.85;;;1.77;;
21488;SDS011;10906;45.194;5.684;2023-07-13T06:14:57;2.55;;;1.27;;
21488;SDS011;10906;45.194;5.684;2023-07-13T06:17:41;7.50;;;1.95;;
21488;SDS011;10906;45.194;5.684;2023-07-13T06:20:28;2.65;;;1.40;;
21488;SDS011;10906;45.194;5.684;2023-07-13T06:23:13;4.05;;;1.50;;
21488;SDS011;10906;45.194;5.684;2023-07-13T06:25:57;2.53;;;1.60;;
21488;SDS011;10906;45.194;5.684;2023-07-13T06:28:43;6.82;;;2.08;;
21488;SDS011;10906;45.194;5.684;2023-07-13T06:31:28;2.55;;;1.40;;
21488;SDS011;10906;45.194;5.684;2023-07-13T06:34:12;2.58;;;1.42;;
21488;SDS011;10906;45.194;5.684;2023-07-13T06:36:57;2.65;;;1.48;;
21488;SDS011;10906;45.194;5.684;2023-07-13T06:39:41;1.98;;;1.42;;
21488;SDS011;10906;45.194;5.684;2023-07-13T06:42:26;4.75;;;1.48;;
21488;SDS011;10906;45.194;5.684;2023-07-13T06:45:10;2.90;;;1.40;;
21488;SDS011;10906;45.194;5.684;2023-07-13T06:47:55;4.85;;;1.40;;
21488;SDS011;10906;45.194;5.684;2023-07-13T06:50:41;6.97;;;1.80;;
21488;SDS011;10906;45.194;5.684;2023-07-13T06:53:26;3.97;;;1.58;;
21488;SDS011;10906;45.194;5.684;2023-07-13T06:56:11;3.00;;;1.40;;
21488;SDS011;10906;45.194;5.684;2023-07-13T06:58:55;3.08;;;1.40;;
21488;SDS011;10906;45.194;5.684;2023-07-13T07:01:41;4.18;;;1.40;;
21488;SDS011;10906;45.194;5.684;2023-07-13T07:04:26;4.50;;;1.85;;
21488;SDS011;10906;45.194;5.684;2023-07-13T07:07:11;4.07;;;1.50;;
21488;SDS011;10906;45.194;5.684;2023-07-13T07:09:55;4.22;;;1.75;;
21488;SDS011;10906;45.194;5.684;2023-07-13T07:12:40;4.20;;;1.70;;
21488;SDS011;10906;45.194;5.684;2023-07-13T07:15:25;3.47;;;1.33;;
21488;SDS011;10906;45.194;5.684;2023-07-13T07:18:10;3.97;;;1.55;;
21488;SDS011;10906;45.194;5.684;2023-07-13T07:20:54;5.55;;;1.70;;
21488;SDS011;10906;45.194;5.684;2023-07-13T07:23:39;2.38;;;1.42;;
21488;SDS011;10906;45.194;5.684;2023-07-13T07:26:24;6.00;;;1.70;;
21488;SDS011;10906;45.194;5.684;2023-07-13T07:29:08;5.97;;;2.00;;
21488;SDS011;10906;45.194;5.684;2023-07-13T07:31:53;5.95;;;1.85;;
21488;SDS011;10906;45.194;5.684;2023-07-13T07:34:38;4.78;;;1.80;;
21488;SDS011;10906;45.194;5.684;2023-07-13T07:37:22;3.38;;;1.60;;
21488;SDS011;10906;45.194;5.684;2023-07-13T07:40:07;6.07;;;1.92;;
21488;SDS011;10906;45.194;5.684;2023-07-13T07:42:52;4.53;;;1.50;;
21488;SDS011;10906;45.194;5.684;2023-07-13T07:45:37;3.08;;;1.55;;
21488;SDS011;10906;45.194;5.684;2023-07-13T07:48:22;3.35;;;1.80;;
21488;SDS011;10906;45.194;5.684;2023-07-13T07:51:07;7.00;;;1.90;;
21488;SDS011;10906;45.194;5.684;2023-07-13T07:53:51;4.97;;;1.92;;
21488;SDS011;10906;45.194;5.684;2023-07-13T07:56:36;3.72;;;1.48;;
21488;SDS011;10906;45.194;5.684;2023-07-13T07:59:20;3.10;;;1.30;;
21488;SDS011;10906;45.194;5.684;2023-07-13T08:02:05;5.20;;;2.10;;
21488;SDS011;10906;45.194;5.684;2023-07-13T08:04:50;2.55;;;1.80;;
21488;SDS011;10906;45.194;5.684;2023-07-13T08:07:35;5.45;;;1.80;;
21488;SDS011;10906;45.194;5.684;2023-07-13T08:10:21;3.33;;;1.80;;
21488;SDS011;10906;45.194;5.684;2023-07-13T08:13:05;4.93;;;1.90;;
21488;SDS011;10906;45.194;5.684;2023-07-13T08:15:50;2.88;;;1.63;;
21488;SDS011;10906;45.194;5.684;2023-07-13T08:18:34;5.05;;;1.60;;
21488;SDS011;10906;45.194;5.684;2023-07-13T08:21:19;3.83;;;1.70;;
21488;SDS011;10906;45.194;5.684;2023-07-13T08:24:04;3.58;;;1.80;;
21488;SDS011;10906;45.194;5.684;2023-07-13T08:26:50;3.17;;;1.45;;
21488;SDS011;10906;45.194;5.684;2023-07-13T08:29:34;2.63;;;1.58;;
21488;SDS011;10906;45.194;5.684;2023-07-13T08:32:19;4.72;;;1.77;;
21488;SDS011;10906;45.194;5.684;2023-07-13T08:35:05;4.20;;;1.58;;
21488;SDS011;10906;45.194;5.684;2023-07-13T08:37:50;7.15;;;1.55;;
21488;SDS011;10906;45.194;5.684;2023-07-13T08:40:34;4.55;;;1.77;;
21488;SDS011;10906;45.194;5.684;2023-07-13T08:43:20;3.75;;;2.03;;
21488;SDS011;10906;45.194;5.684;2023-07-13T08:46:18;2.88;;;1.50;;
21488;SDS011;10906;45.194;5.684;2023-07-13T08:49:16;3.10;;;1.42;;
21488;SDS011;10906;45.194;5.684;2023-07-13T08:52:17;5.10;;;1.23;;
21488;SDS011;10906;45.194;5.684;2023-07-13T08:55:18;3.22;;;1.52;;
21488;SDS011;10906;45.194;5.684;2023-07-13T08:58:09;8.45;;;1.70;;
21488;SDS011;10906;45.194;5.684;2023-07-13T09:00:59;5.05;;;1.45;;
21488;SDS011;10906;45.194;5.684;2023-07-13T09:04:15;1.92;;;1.27;;
21488;SDS011;10906;45.194;5.684;2023-07-13T09:07:12;4.93;;;1.38;;
21488;SDS011;10906;45.194;5.684;2023-07-13T09:10:11;3.60;;;1.70;;
21488;SDS011;10906;45.194;5.684;2023-07-13T09:15:49;3.83;;;1.48;;
21488;SDS011;10906;45.194;5.684;2023-07-13T09:18:36;3.47;;;1.55;;
21488;SDS011;10906;45.194;5.684;2023-07-13T09:21:35;6.03;;;2.00;;
21488;SDS011;10906;45.194;5.684;2023-07-13T09:24:31;3.63;;;1.95;;
21488;SDS011;10906;45.194;5.684;2023-07-13T09:27:22;4.90;;;1.77;;
21488;SDS011;10906;45.194;5.684;2023-07-13T09:33:00;3.97;;;2.00;;
21488;SDS011;10906;45.194;5.684;2023-07-13T09:35:47;3.83;;;1.60;;
21488;SDS011;10906;45.194;5.684;2023-07-13T09:38:41;4.50;;;1.85;;
21488;SDS011;10906;45.194;5.684;2023-07-13T09:44:55;4.75;;;2.03;;
21488;SDS011;10906;45.194;5.684;2023-07-13T09:47:50;6.25;;;1.73;;
21488;SDS011;10906;45.194;5.684;2023-07-13T09:50:47;4.50;;;1.83;;
21488;SDS011;10906;45.194;5.684;2023-07-13T09:53:47;2.85;;;1.70;;
21488;SDS011;10906;45.194;5.684;2023-07-13T09:56:45;4.63;;;1.70;;
21488;SDS011;10906;45.194;5.684;2023-07-13T09:59:34;3.20;;;1.60;;
21488;SDS011;10906;45.194;5.684;2023-07-13T10:11:00;2.55;;;1.08;;
21488;SDS011;10906;45.194;5.684;2023-07-13T10:13:53;2.83;;;1.40;;
21488;SDS011;10906;45.194;5.684;2023-07-13T10:16:39;3.40;;;1.38;;
21488;SDS011;10906;45.194;5.684;2023-07-13T10:19:29;2.85;;;1.42;;
21488;SDS011;10906;45.194;5.684;2023-07-13T10:22:24;3.35;;;1.40;;
21488;SDS011;10906;45.194;5.684;2023-07-13T10:25:34;3.67;;;1.40;;
21488;SDS011;10906;45.194;5.684;2023-07-13T10:28:35;4.28;;;1.20;;
21488;SDS011;10906;45.194;5.684;2023-07-13T10:31:21;5.50;;;1.48;;
21488;SDS011;10906;45.194;5.684;2023-07-13T10:34:08;1.95;;;1.30;;
21488;SDS011;10906;45.194;5.684;2023-07-13T10:36:54;5.75;;;1.60;;
21488;SDS011;10906;45.194;5.684;2023-07-13T10:39:39;3.72;;;1.33;;
21488;SDS011;10906;45.194;5.684;2023-07-13T10:42:30;3.80;;;1.48;;
21488;SDS011;10906;45.194;5.684;2023-07-13T10:45:33;3.28;;;1.40;;
21488;SDS011;10906;45.194;5.684;2023-07-13T10:48:20;2.63;;;1.40;;
21488;SDS011;10906;45.194;5.684;2023-07-13T10:51:08;5.15;;;1.42;;
21488;SDS011;10906;45.194;5.684;2023-07-13T11:02:57;3.50;;;1.40;;
21488;SDS011;10906;45.194;5.684;2023-07-13T11:05:48;3.88;;;1.40;;
21488;SDS011;10906;45.194;5.684;2023-07-13T11:08:38;7.28;;;1.75;;
21488;SDS011;10906;45.194;5.684;2023-07-13T11:11:38;3.25;;;1.65;;
21488;SDS011;10906;45.194;5.684;2023-07-13T11:17:24;2.85;;;1.40;;
21488;SDS011;10906;45.194;5.684;2023-07-13T11:26:00;3.22;;;1.40;;
21488;SDS011;10906;45.194;5.684;2023-07-13T11:28:45;3.78;;;1.55;;
21488;SDS011;10906;45.194;5.684;2023-07-13T11:31:33;3.15;;;1.40;;
21488;SDS011;10906;45.194;5.684;2023-07-13T11:34:33;2.30;;;1.33;;
21488;SDS011;10906;45.194;5.684;2023-07-13T11:37:21;2.83;;;1.20;;
21488;SDS011;10906;45.194;5.684;2023-07-13T11:40:12;3.65;;;1.65;;
21488;SDS011;10906;45.194;5.684;2023-07-13T11:43:00;2.42;;;1.25;;
21488;SDS011;10906;45.194;5.684;2023-07-13T11:45:45;6.13;;;1.73;;
21488;SDS011;10906;45.194;5.684;2023-07-13T11:48:30;4.13;;;1.77;;
21488;SDS011;10906;45.194;5.684;2023-07-13T11:51:18;3.17;;;1.15;;
21488;SDS011;10906;45.194;5.684;2023-07-13T11:54:15;3.33;;;1.35;;
21488;SDS011;10906;45.194;5.684;2023-07-13T11:57:25;3.00;;;1.50;;
21488;SDS011;10906;45.194;5.684;2023-07-13T12:00:18;3.25;;;1.33;;
21488;SDS011;10906;45.194;5.684;2023-07-13T12:03:07;6.82;;;1.67;;
21488;SDS011;10906;45.194;5.684;2023-07-13T12:05:56;4.30;;;1.30;;
21488;SDS011;10906;45.194;5.684;2023-07-13T12:08:46;2.70;;;1.20;;
21488;SDS011;10906;45.194;5.684;2023-07-13T12:11:30;3.67;;;1.60;;
21488;SDS011;10906;45.194;5.684;2023-07-13T12:14:21;2.80;;;1.50;;
21488;SDS011;10906;45.194;5.684;2023-07-13T12:17:16;4.57;;;1.27;;
21488;SDS011;10906;45.194;5.684;2023-07-13T12:20:13;8.95;;;5.32;;
21488;SDS011;10906;45.194;5.684;2023-07-13T15:14:40;1.75;;;1.10;;
21488;SDS011;10906;45.194;5.684;2023-07-13T15:17:29;3.42;;;1.25;;
21488;SDS011;10906;45.194;5.684;2023-07-13T15:20:44;3.72;;;1.40;;
21488;SDS011;10906;45.194;5.684;2023-07-13T15:26:15;2.03;;;1.20;;
21488;SDS011;10906;45.194;5.684;2023-07-13T15:29:10;2.23;;;1.13;;
21488;SDS011;10906;45.194;5.684;2023-07-13T15:31:57;3.45;;;1.60;;
21488;SDS011;10906;45.194;5.684;2023-07-13T15:34:42;4.30;;;1.33;;
21488;SDS011;10906;45.194;5.684;2023-07-13T15:37:26;2.38;;;1.50;;
21488;SDS011;10906;45.194;5.684;2023-07-13T15:40:11;1.88;;;1.10;;
21488;SDS011;10906;45.194;5.684;2023-07-13T15:43:04;3.15;;;1.25;;
21488;SDS011;10906;45.194;5.684;2023-07-13T15:46:01;4.28;;;1.55;;
21488;SDS011;10906;45.194;5.684;2023-07-13T15:48:46;4.18;;;1.35;;
21488;SDS011;10906;45.194;5.684;2023-07-13T15:51:31;3.15;;;1.50;;
21488;SDS011;10906;45.194;5.684;2023-07-13T15:54:18;1.73;;;1.25;;
21488;SDS011;10906;45.194;5.684;2023-07-13T15:57:03;2.08;;;1.30;;
21488;SDS011;10906;45.194;5.684;2023-07-13T15:59:50;2.42;;;1.20;;
21488;SDS011;10906;45.194;5.684;2023-07-13T16:02:37;1.65;;;1.20;;
21488;SDS011;10906;45.194;5.684;2023-07-13T16:05:31;2.67;;;1.60;;
21488;SDS011;10906;45.194;5.684;2023-07-13T16:08:26;2.65;;;1.20;;
21488;SDS011;10906;45.194;5.684;2023-07-13T16:11:15;2.05;;;1.17;;
21488;SDS011;10906;45.194;5.684;2023-07-13T16:14:12;2.08;;;1.20;;
21488;SDS011;10906;45.194;5.684;2023-07-13T16:17:18;4.80;;;1.60;;
21488;SDS011;10906;45.194;5.684;2023-07-13T16:20:07;2.50;;;1.10;;
21488;SDS011;10906;45.194;5.684;2023-07-13T16:22:58;2.80;;;1.40;;
21488;SDS011;10906;45.194;5.684;2023-07-13T16:25:49;3.00;;;1.27;;
21488;SDS011;10906;45.194;5.684;2023-07-13T16:32:04;3.70;;;1.60;;
21488;SDS011;10906;45.194;5.684;2023-07-13T16:34:49;3.08;;;1.70;;
21488;SDS011;10906;45.194;5.684;2023-07-13T16:40:46;2.83;;;1.40;;
21488;SDS011;10906;45.194;5.684;2023-07-13T16:43:42;3.90;;;1.70;;
21488;SDS011;10906;45.194;5.684;2023-07-13T16:46:41;2.78;;;1.40;;
21488;SDS011;10906;45.194;5.684;2023-07-13T16:52:30;3.67;;;1.50;;
21488;SDS011;10906;45.194;5.684;2023-07-13T16:55:22;6.50;;;1.60;;
21488;SDS011;10906;45.194;5.684;2023-07-13T16:58:16;2.80;;;1.40;;
21488;SDS011;10906;45.194;5.684;2023-07-13T17:01:27;3.05;;;1.50;;
21488;SDS011;10906;45.194;5.684;2023-07-13T17:04:41;2.55;;;1.27;;
21488;SDS011;10906;45.194;5.684;2023-07-13T17:07:28;1.33;;;1.23;;
21488;SDS011;10906;45.194;5.684;2023-07-13T17:13:57;3.17;;;1.58;;
21488;SDS011;10906;45.194;5.684;2023-07-13T17:16:58;4.72;;;1.70;;
21488;SDS011;10906;45.194;5.684;2023-07-13T17:19:49;3.05;;;1.42;;
21488;SDS011;10906;45.194;5.684;2023-07-13T17:23:39;3.53;;;2.42;;
21488;SDS011;10906;45.194;5.684;2023-07-13T17:27:00;3.75;;;1.70;;
21488;SDS011;10906;45.194;5.684;2023-07-13T17:29:44;3.33;;;1.58;;
21488;SDS011;10906;45.194;5.684;2023-07-13T17:32:46;2.15;;;1.33;;
21488;SDS011;10906;45.194;5.684;2023-07-13T17:35:58;8.20;;;1.23;;
21488;SDS011;10906;45.194;5.684;2023-07-13T17:39:14;5.72;;;1.23;;
21488;SDS011;10906;45.194;5.684;2023-07-13T17:45:30;3.80;;;1.50;;
21488;SDS011;10906;45.194;5.684;2023-07-13T17:48:38;3.60;;;1.35;;
21488;SDS011;10906;45.194;5.684;2023-07-13T17:51:46;7.03;;;1.60;;
21488;SDS011;10906;45.194;5.684;2023-07-13T17:54:55;6.65;;;1.77;;
21488;SDS011;10906;45.194;5.684;2023-07-13T18:00:05;2.20;;;1.27;;
21488;SDS011;10906;45.194;5.684;2023-07-13T18:03:18;6.43;;;1.35;;
21488;SDS011;10906;45.194;5.684;2023-07-13T18:06:26;1.75;;;1.50;;
21488;SDS011;10906;45.194;5.684;2023-07-13T18:09:37;2.90;;;1.52;;
21488;SDS011;10906;45.194;5.684;2023-07-13T18:12:25;3.38;;;1.25;;
21488;SDS011;10906;45.194;5.684;2023-07-13T18:15:14;3.15;;;1.50;;
21488;SDS011;10906;45.194;5.684;2023-07-13T18:18:20;3.55;;;1.42;;
21488;SDS011;10906;45.194;5.684;2023-07-13T18:21:21;2.67;;;1.40;;
21488;SDS011;10906;45.194;5.684;2023-07-13T18:24:08;2.67;;;1.52;;
21488;SDS011;10906;45.194;5.684;2023-07-13T18:27:05;2.60;;;1.30;;
21488;SDS011;10906;45.194;5.684;2023-07-13T18:30:02;6.22;;;1.70;;
21488;SDS011;10906;45.194;5.684;2023-07-13T18:32:51;2.72;;;1.40;;
21488;SDS011;10906;45.194;5.684;2023-07-13T18:35:43;6.17;;;1.60;;
21488;SDS011;10906;45.194;5.684;2023-07-13T18:38:38;2.70;;;1.95;;
21488;SDS011;10906;45.194;5.684;2023-07-13T18:41:22;3.03;;;1.73;;
21488;SDS011;10906;45.194;5.684;2023-07-13T18:44:15;3.50;;;1.70;;
21488;SDS011;10906;45.194;5.684;2023-07-13T18:47:02;2.17;;;1.60;;
21488;SDS011;10906;45.194;5.684;2023-07-13T18:49:51;5.32;;;1.30;;
21488;SDS011;10906;45.194;5.684;2023-07-13T18:52:51;2.70;;;1.63;;
21488;SDS011;10906;45.194;5.684;2023-07-13T18:55:40;2.20;;;1.58;;
21488;SDS011;10906;45.194;5.684;2023-07-13T18:58:24;2.72;;;1.33;;
21488;SDS011;10906;45.194;5.684;2023-07-13T19:04:39;5.53;;;1.42;;
21488;SDS011;10906;45.194;5.684;2023-07-13T19:07:24;3.03;;;1.65;;
21488;SDS011;10906;45.194;5.684;2023-07-13T19:10:25;3.38;;;1.83;;
21488;SDS011;10906;45.194;5.684;2023-07-13T19:16:48;3.10;;;1.40;;
21488;SDS011;10906;45.194;5.684;2023-07-13T19:19:33;2.25;;;1.60;;
21488;SDS011;10906;45.194;5.684;2023-07-13T19:22:21;4.50;;;2.08;;
21488;SDS011;10906;45.194;5.684;2023-07-13T19:25:25;3.10;;;1.63;;
21488;SDS011;10906;45.194;5.684;2023-07-13T19:31:35;4.45;;;1.75;;
21488;SDS011;10906;45.194;5.684;2023-07-13T19:34:29;5.95;;;1.98;;
21488;SDS011;10906;45.194;5.684;2023-07-13T19:37:24;4.25;;;1.80;;
21488;SDS011;10906;45.194;5.684;2023-07-13T19:40:23;6.47;;;1.92;;
21488;SDS011;10906;45.194;5.684;2023-07-13T19:43:46;8.50;;;2.33;;
21488;SDS011;10906;45.194;5.684;2023-07-13T19:46:35;3.47;;;1.67;;
21488;SDS011;10906;45.194;5.684;2023-07-13T19:49:20;5.03;;;1.92;;
21488;SDS011;10906;45.194;5.684;2023-07-13T19:52:15;3.22;;;1.77;;
21488;SDS011;10906;45.194;5.684;2023-07-13T19:55:16;2.45;;;1.75;;
21488;SDS011;10906;45.194;5.684;2023-07-13T19:58:10;2.60;;;1.52;;
21488;SDS011;10906;45.194;5.684;2023-07-13T20:00:55;3.28;;;1.80;;
21488;SDS011;10906;45.194;5.684;2023-07-13T20:06:55;7.60;;;1.58;;
21488;SDS011;10906;45.194;5.684;2023-07-13T20:09:40;3.20;;;1.70;;
21488;SDS011;10906;45.194;5.684;2023-07-13T20:12:39;3.40;;;1.80;;
21488;SDS011;10906;45.194;5.684;2023-07-13T20:15:33;3.72;;;1.40;;
21488;SDS011;10906;45.194;5.684;2023-07-13T20:18:23;3.75;;;1.45;;
21488;SDS011;10906;45.194;5.684;2023-07-13T20:21:16;2.97;;;1.50;;
21488;SDS011;10906;45.194;5.684;2023-07-13T20:24:04;2.15;;;1.50;;
21488;SDS011;10906;45.194;5.684;2023-07-13T20:26:58;3.72;;;2.00;;
21488;SDS011;10906;45.194;5.684;2023-07-13T20:29:49;2.80;;;1.98;;
21488;SDS011;10906;45.194;5.684;2023-07-13T20:32:42;7.47;;;2.60;;
21488;SDS011;10906;45.194;5.684;2023-07-13T20:35:29;3.95;;;2.60;;
21488;SDS011;10906;45.194;5.684;2023-07-13T20:38:18;4.47;;;2.67;;
21488;SDS011;10906;45.194;5.684;2023-07-13T20:41:13;6.53;;;3.53;;
21488;SDS011;10906;45.194;5.684;2023-07-13T20:44:01;8.50;;;2.88;;
21488;SDS011;10906;45.194;5.684;2023-07-13T20:46:53;6.57;;;2.17;;
21488;SDS011;10906;45.194;5.684;2023-07-13T20:49:49;9.33;;;2.90;;
21488;SDS011;10906;45.194;5.684;2023-07-13T20:52:43;5.53;;;3.75;;
21488;SDS011;10906;45.194;5.684;2023-07-13T20:58:23;9.52;;;6.00;;
21488;SDS011;10906;45.194;5.684;2023-07-13T21:01:29;13.63;;;8.30;;
21488;SDS011;10906;45.194;5.684;2023-07-13T21:04:29;20.13;;;11.65;;
21488;SDS011;10906;45.194;5.684;2023-07-13T21:07:17;20.35;;;12.45;;
21488;SDS011;10906;45.194;5.684;2023-07-13T21:10:16;19.85;;;11.85;;
21488;SDS011;10906;45.194;5.684;2023-07-13T21:13:01;17.50;;;10.52;;
21488;SDS011;10906;45.194;5.684;2023-07-13T21:15:46;12.32;;;6.93;;
21488;SDS011;10906;45.194;5.684;2023-07-13T21:18:42;10.88;;;4.45;;
21488;SDS011;10906;45.194;5.684;2023-07-13T21:21:29;17.52;;;4.82;;
21488;SDS011;10906;45.194;5.684;2023-07-13T21:24:14;6.65;;;4.20;;
21488;SDS011;10906;45.194;5.684;2023-07-13T21:27:02;6.63;;;4.85;;
21488;SDS011;10906;45.194;5.684;2023-07-13T21:29:47;8.45;;;4.82;;
21488;SDS011;10906;45.194;5.684;2023-07-13T21:32:41;11.18;;;5.15;;
21488;SDS011;10906;45.194;5.684;2023-07-13T21:38:16;9.88;;;3.47;;
21488;SDS011;10906;45.194;5.684;2023-07-13T21:41:25;3.90;;;2.70;;
21488;SDS011;10906;45.194;5.684;2023-07-13T21:47:13;5.30;;;2.40;;
21488;SDS011;10906;45.194;5.684;2023-07-13T21:49:58;8.23;;;2.40;;
21488;SDS011;10906;45.194;5.684;2023-07-13T21:52:45;8.05;;;2.90;;
21488;SDS011;10906;45.194;5.684;2023-07-13T21:55:33;6.38;;;2.40;;
